createdAt,value
2019-01-29T00:00:52.367Z,3.67
2019-01-29T00:03:23.861Z,3.80
2019-01-29T00:05:55.542Z,3.73
2019-01-29T00:08:27.046Z,3.82
2019-01-29T00:10:58.704Z,3.95
2019-01-29T00:13:30.196Z,3.92
2019-01-29T00:16:01.930Z,3.86
2019-01-29T00:18:34.198Z,3.82
2019-01-29T00:21:06.076Z,3.87
2019-01-29T00:23:37.488Z,4.01
2019-01-29T00:26:09.045Z,3.94
2019-01-29T00:28:40.624Z,4.14
2019-01-29T00:31:12.039Z,4.30
2019-01-29T00:33:43.388Z,4.30
2019-01-29T00:36:15.178Z,4.35
2019-01-29T00:38:47.675Z,4.47
2019-01-29T00:41:19.349Z,4.23
2019-01-29T00:43:51.106Z,4.24
2019-01-29T00:46:22.720Z,4.40
2019-01-29T00:48:54.392Z,4.54
2019-01-29T00:51:26.056Z,4.54
2019-01-29T00:53:57.668Z,4.46
2019-01-29T00:56:29.216Z,4.58
2019-01-29T00:59:00.883Z,4.54
2019-01-29T01:01:32.348Z,4.63
2019-01-29T01:04:03.840Z,4.58
2019-01-29T01:06:35.210Z,4.26
2019-01-29T01:09:09.511Z,4.42
2019-01-29T01:11:40.943Z,4.41
2019-01-29T01:14:13.637Z,4.52
2019-01-29T01:16:45.575Z,4.49
2019-01-29T01:19:17.221Z,4.47
2019-01-29T01:21:48.887Z,4.64
2019-01-29T01:24:20.741Z,4.57
2019-01-29T01:26:52.411Z,4.64
2019-01-29T01:29:24.098Z,4.48
2019-01-29T01:31:55.639Z,4.53
2019-01-29T01:34:27.234Z,4.54
2019-01-29T01:36:58.993Z,4.63
2019-01-29T01:39:30.631Z,4.66
2019-01-29T01:42:02.432Z,4.71
2019-01-29T01:44:33.996Z,4.59
2019-01-29T01:47:05.373Z,4.69
2019-01-29T01:49:36.934Z,4.57
2019-01-29T01:52:08.448Z,4.62
2019-01-29T01:54:40.146Z,4.66
2019-01-29T01:57:11.582Z,4.72
2019-01-29T01:59:43.141Z,4.70
2019-01-29T02:02:14.747Z,4.69
2019-01-29T02:04:46.342Z,4.53
2019-01-29T02:07:17.673Z,4.65
2019-01-29T02:09:48.986Z,4.62
2019-01-29T02:12:20.260Z,4.55
2019-01-29T02:14:51.710Z,4.46
2019-01-29T02:17:23.192Z,4.54
2019-01-29T02:19:54.807Z,4.27
2019-01-29T02:22:26.307Z,4.37
2019-01-29T02:24:57.981Z,4.27
2019-01-29T02:27:29.807Z,4.12
2019-01-29T02:30:01.408Z,4.08
2019-01-29T02:32:33.284Z,4.13
2019-01-29T02:35:05.047Z,4.24
2019-01-29T02:37:36.435Z,4.36
2019-01-29T02:40:10.955Z,4.52
2019-01-29T02:42:42.298Z,4.33
2019-01-29T02:45:14.878Z,4.42
2019-01-29T02:47:46.719Z,4.60
2019-01-29T02:50:19.128Z,4.54
2019-01-29T02:52:50.529Z,4.47
2019-01-29T02:55:21.963Z,4.60
2019-01-29T02:57:53.286Z,4.63
2019-01-29T03:00:26.628Z,4.59
2019-01-29T03:02:58.243Z,4.63
2019-01-29T03:05:30.896Z,4.62
2019-01-29T03:08:02.611Z,4.70
2019-01-29T03:10:34.154Z,4.71
2019-01-29T03:13:05.996Z,4.73
2019-01-29T03:15:37.490Z,4.65
2019-01-29T03:18:09.142Z,4.63
2019-01-29T03:20:40.637Z,4.49
2019-01-29T03:23:12.482Z,4.60
2019-01-29T03:25:44.161Z,4.42
2019-01-29T03:28:15.973Z,4.27
2019-01-29T03:30:47.721Z,4.33
2019-01-29T03:33:19.227Z,4.46
2019-01-29T03:35:52.112Z,4.44
2019-01-29T03:38:23.944Z,4.61
2019-01-29T03:40:55.514Z,4.62
2019-01-29T03:43:27.265Z,4.66
2019-01-29T03:45:59.041Z,4.67
2019-01-29T03:48:30.784Z,4.66
2019-01-29T03:51:02.142Z,4.82
2019-01-29T03:53:38.206Z,4.80
2019-01-29T03:56:07.305Z,4.82
2019-01-29T03:58:39.442Z,4.65
2019-01-29T04:01:11.110Z,4.48
2019-01-29T04:03:42.591Z,4.48
2019-01-29T04:06:14.037Z,4.60
2019-01-29T04:08:45.596Z,4.64
2019-01-29T04:11:17.182Z,4.75
2019-01-29T04:13:48.948Z,4.80
2019-01-29T04:16:20.565Z,4.70
2019-01-29T04:18:52.162Z,4.81
2019-01-29T04:21:23.571Z,4.70
2019-01-29T04:23:55.180Z,4.35
2019-01-29T04:26:26.822Z,4.24
2019-01-29T04:28:58.453Z,4.26
2019-01-29T04:31:30.144Z,4.19
2019-01-29T04:34:01.514Z,4.23
2019-01-29T04:36:32.760Z,4.31
2019-01-29T04:39:05.925Z,4.49
2019-01-29T04:41:37.217Z,4.58
2019-01-29T04:44:08.778Z,4.56
2019-01-29T04:46:40.223Z,4.36
2019-01-29T04:49:11.855Z,4.53
2019-01-29T04:51:43.149Z,4.47
2019-01-29T04:54:14.814Z,4.26
2019-01-29T04:56:46.277Z,4.33
2019-01-29T04:59:17.883Z,4.42
2019-01-29T05:01:49.670Z,4.34
2019-01-29T05:04:21.308Z,4.54
2019-01-29T05:06:52.598Z,4.48
2019-01-29T05:09:23.978Z,4.45
2019-01-29T05:11:55.198Z,4.48
2019-01-29T05:14:26.865Z,4.51
2019-01-29T05:16:58.531Z,4.47
2019-01-29T05:19:30.266Z,4.44
2019-01-29T05:22:01.494Z,4.60
2019-01-29T05:24:33.140Z,4.54
2019-01-29T05:27:04.927Z,4.68
2019-01-29T05:29:36.623Z,4.71
2019-01-29T05:32:08.425Z,4.81
2019-01-29T05:34:39.863Z,4.54
2019-01-29T05:37:11.583Z,4.69
2019-01-29T05:39:43.108Z,4.76
2019-01-29T05:42:14.763Z,4.78
2019-01-29T05:44:46.563Z,4.79
2019-01-29T05:47:17.980Z,4.74
2019-01-29T05:49:49.689Z,4.63
2019-01-29T05:52:20.939Z,4.70
2019-01-29T05:54:52.258Z,4.73
2019-01-29T05:57:23.764Z,4.74
2019-01-29T05:59:55.310Z,4.74
2019-01-29T06:02:26.981Z,4.78
2019-01-29T06:04:58.697Z,4.87
2019-01-29T06:07:30.390Z,4.89
2019-01-29T06:10:01.608Z,4.72
2019-01-29T06:12:33.259Z,4.79
2019-01-29T06:15:05.448Z,4.69
2019-01-29T06:17:37.317Z,4.72
2019-01-29T06:20:11.901Z,4.81
2019-01-29T06:22:43.335Z,4.95
2019-01-29T06:25:15.000Z,4.96
2019-01-29T06:27:47.169Z,4.73
2019-01-29T06:30:20.126Z,4.96
2019-01-29T06:32:51.806Z,4.87
2019-01-29T06:35:23.273Z,4.63
2019-01-29T06:37:54.842Z,4.57
2019-01-29T06:40:28.083Z,4.63
2019-01-29T06:43:00.585Z,4.58
2019-01-29T06:45:32.551Z,4.69
2019-01-29T06:48:04.658Z,4.90
2019-01-29T06:50:36.262Z,4.81
2019-01-29T06:53:07.678Z,4.93
2019-01-29T06:55:39.256Z,4.94
2019-01-29T06:58:10.777Z,4.87
2019-01-29T07:00:42.934Z,4.99
2019-01-29T07:03:14.433Z,4.98
2019-01-29T07:05:45.894Z,5.10
2019-01-29T07:08:17.443Z,4.99
2019-01-29T07:10:49.201Z,5.04
2019-01-29T07:13:21.270Z,5.14
2019-01-29T07:16:12.555Z,5.16
2019-01-29T07:19:05.710Z,5.20
2019-01-29T07:21:37.340Z,5.26
2019-01-29T07:24:09.128Z,5.23
2019-01-29T07:26:40.783Z,5.34
2019-01-29T07:29:12.093Z,5.40
2019-01-29T07:31:43.827Z,5.55
2019-01-29T07:34:15.054Z,5.50
2019-01-29T07:36:46.517Z,5.55
2019-01-29T07:39:18.305Z,5.33
2019-01-29T07:41:49.855Z,5.42
2019-01-29T07:44:21.458Z,5.41
2019-01-29T07:46:52.930Z,5.32
2019-01-29T07:49:24.693Z,5.39
2019-01-29T07:51:56.529Z,5.52
2019-01-29T07:54:33.227Z,5.28
2019-01-29T07:57:01.850Z,5.35
2019-01-29T07:59:33.515Z,5.31
2019-01-29T08:02:05.752Z,5.33
2019-01-29T08:04:37.259Z,5.50
2019-01-29T08:07:09.021Z,5.57
2019-01-29T08:09:40.471Z,5.57
2019-01-29T08:12:12.093Z,5.49
2019-01-29T08:14:43.637Z,5.18
2019-01-29T08:17:15.257Z,5.40
2019-01-29T08:19:46.914Z,5.56
2019-01-29T08:22:18.405Z,5.58
2019-01-29T08:24:53.309Z,5.61
2019-01-29T08:27:23.603Z,5.46
2019-01-29T08:29:55.203Z,5.53
2019-01-29T08:32:26.683Z,5.40
2019-01-29T08:34:58.427Z,5.40
2019-01-29T08:37:30.252Z,5.57
2019-01-29T08:40:01.774Z,5.59
2019-01-29T08:42:33.392Z,5.63
2019-01-29T08:45:05.945Z,5.68
2019-01-29T08:47:37.464Z,5.64
2019-01-29T08:50:11.938Z,5.79
2019-01-29T08:52:43.457Z,5.85
2019-01-29T08:55:14.768Z,6.03
2019-01-29T08:57:46.086Z,6.19
2019-01-29T09:00:18.211Z,6.26
2019-01-29T09:02:49.868Z,6.26
2019-01-29T09:05:21.332Z,6.17
2019-01-29T09:07:52.814Z,6.30
2019-01-29T09:10:24.378Z,6.26
2019-01-29T09:12:55.956Z,6.25
2019-01-29T09:15:27.714Z,6.10
2019-01-29T09:17:59.652Z,6.06
2019-01-29T09:20:31.406Z,6.12
2019-01-29T09:23:03.339Z,6.20
2019-01-29T09:25:36.825Z,6.03
2019-01-29T09:28:08.433Z,6.03
2019-01-29T09:30:39.875Z,5.93
2019-01-29T09:33:11.354Z,5.73
2019-01-29T09:35:42.784Z,5.59
2019-01-29T09:38:14.113Z,5.46
2019-01-29T09:40:45.597Z,5.46
2019-01-29T09:43:17.577Z,5.30
2019-01-29T09:45:49.173Z,5.20
2019-01-29T09:48:20.917Z,5.12
2019-01-29T09:50:52.632Z,5.14
2019-01-29T09:53:24.047Z,5.17
2019-01-29T09:55:55.626Z,5.28
2019-01-29T09:58:27.160Z,5.42
2019-01-29T10:00:58.697Z,5.47
2019-01-29T10:03:30.414Z,5.52
2019-01-29T10:06:01.944Z,5.62
2019-01-29T10:08:33.472Z,5.88
2019-01-29T10:11:05.180Z,5.84
2019-01-29T10:13:36.787Z,5.95
2019-01-29T10:16:08.594Z,6.04
2019-01-29T10:18:39.959Z,6.04
2019-01-29T10:21:11.342Z,6.18
2019-01-29T10:23:42.844Z,6.29
2019-01-29T10:26:14.603Z,6.28
2019-01-29T10:28:45.910Z,6.29
2019-01-29T10:31:17.241Z,6.38
2019-01-29T10:33:48.872Z,6.44
2019-01-29T10:36:20.621Z,6.34
2019-01-29T10:38:52.098Z,6.31
2019-01-29T10:41:23.677Z,6.38
2019-01-29T10:43:56.382Z,6.50
2019-01-29T10:46:27.943Z,6.57
2019-01-29T10:48:59.538Z,6.33
2019-01-29T10:51:31.302Z,6.30
2019-01-29T10:54:03.044Z,6.34
2019-01-29T10:56:34.581Z,6.16
2019-01-29T10:59:06.400Z,5.92
2019-01-29T11:01:38.124Z,5.98
2019-01-29T11:04:09.803Z,5.96
2019-01-29T11:06:41.553Z,5.89
2019-01-29T11:09:15.100Z,5.66
2019-01-29T11:11:46.569Z,5.87
2019-01-29T11:14:17.840Z,6.03
2019-01-29T11:16:49.167Z,6.09
2019-01-29T11:19:20.575Z,6.20
2019-01-29T11:21:52.142Z,6.30
2019-01-29T11:24:23.632Z,6.20
2019-01-29T11:26:55.004Z,6.22
2019-01-29T11:29:26.719Z,6.20
2019-01-29T11:31:58.556Z,6.31
2019-01-29T11:34:30.320Z,6.44
2019-01-29T11:37:01.872Z,6.66
2019-01-29T11:39:33.840Z,6.78
2019-01-29T11:42:05.789Z,6.82
2019-01-29T11:44:37.563Z,6.92
2019-01-29T11:47:09.275Z,6.94
2019-01-29T11:49:41.118Z,6.96
2019-01-29T11:52:12.395Z,7.01
2019-01-29T11:54:43.892Z,6.77
2019-01-29T11:57:16.533Z,6.56
2019-01-29T11:59:48.050Z,6.65
2019-01-29T12:02:28.027Z,6.46
2019-01-29T12:04:52.527Z,6.15
2019-01-29T12:07:24.166Z,6.28
2019-01-29T12:09:56.596Z,6.20
2019-01-29T12:12:28.402Z,6.20
2019-01-29T12:15:00.214Z,6.16
2019-01-29T12:17:31.692Z,6.05
2019-01-29T12:20:03.374Z,6.03
2019-01-29T12:22:34.863Z,6.12
2019-01-29T12:25:06.726Z,6.24
2019-01-29T12:27:38.505Z,6.20
2019-01-29T12:30:14.662Z,6.28
2019-01-29T12:32:46.362Z,6.38
2019-01-29T12:35:17.915Z,6.42
2019-01-29T12:37:49.469Z,6.50
2019-01-29T12:40:21.080Z,6.59
2019-01-29T12:42:53.724Z,6.49
2019-01-29T12:45:25.434Z,6.40
2019-01-29T12:47:57.200Z,6.63
2019-01-29T12:50:29.161Z,6.56
2019-01-29T12:53:11.859Z,6.65
2019-01-29T12:55:43.433Z,6.77
2019-01-29T12:58:15.119Z,6.80
2019-01-29T13:00:49.655Z,6.75
2019-01-29T13:03:21.374Z,6.79
2019-01-29T13:05:53.326Z,6.81
2019-01-29T13:08:24.997Z,6.79
2019-01-29T13:10:56.560Z,6.84
2019-01-29T13:13:28.409Z,6.77
2019-01-29T13:16:00.212Z,6.84
2019-01-29T13:18:31.883Z,6.62
2019-01-29T13:21:03.529Z,6.66
2019-01-29T13:23:34.858Z,6.48
2019-01-29T13:26:06.435Z,6.55
2019-01-29T13:28:37.681Z,6.65
2019-01-29T13:31:09.339Z,6.63
2019-01-29T13:33:40.938Z,6.65
2019-01-29T13:36:13.466Z,6.62
2019-01-29T13:38:45.296Z,6.61
2019-01-29T13:41:17.185Z,6.69
2019-01-29T13:43:48.809Z,6.72
2019-01-29T13:46:20.733Z,6.65
2019-01-29T13:48:52.468Z,6.65
2019-01-29T13:51:24.174Z,6.81
2019-01-29T13:53:55.836Z,6.87
2019-01-29T13:56:27.578Z,6.91
2019-01-29T13:58:59.200Z,6.80
2019-01-29T14:01:32.039Z,6.68
2019-01-29T14:04:06.263Z,6.68
2019-01-29T14:06:37.065Z,6.67
2019-01-29T14:09:09.448Z,6.73
2019-01-29T14:11:41.241Z,6.80
2019-01-29T14:14:12.926Z,6.74
2019-01-29T14:16:44.385Z,6.73
2019-01-29T14:19:15.915Z,6.81
2019-01-29T14:21:47.393Z,6.85
2019-01-29T14:24:19.128Z,6.86
2019-01-29T14:26:50.700Z,6.89
2019-01-29T14:29:22.238Z,6.92
2019-01-29T14:31:53.817Z,6.73
2019-01-29T14:34:25.376Z,6.66
2019-01-29T14:36:56.899Z,6.71
2019-01-29T14:40:16.805Z,6.68
2019-01-29T14:42:49.838Z,6.71
2019-01-29T14:45:24.599Z,6.67
2019-01-29T14:47:57.090Z,6.67
2019-01-29T14:50:29.773Z,6.75
2019-01-29T14:53:01.211Z,6.68
2019-01-29T14:55:32.818Z,6.60
2019-01-29T14:58:04.355Z,6.58
2019-01-29T15:00:37.510Z,6.60
2019-01-29T15:03:11.348Z,6.63
2019-01-29T15:05:42.594Z,6.64
2019-01-29T15:08:14.259Z,6.67
2019-01-29T15:10:45.930Z,6.72
2019-01-29T15:13:17.373Z,6.75
2019-01-29T15:15:55.264Z,6.76
2019-01-29T15:18:32.743Z,6.71
2019-01-29T15:21:04.627Z,6.64
2019-01-29T15:23:36.136Z,6.60
2019-01-29T15:26:07.931Z,6.58
2019-01-29T15:28:39.624Z,6.62
2019-01-29T15:31:11.169Z,6.59
2019-01-29T15:33:42.664Z,6.57
2019-01-29T15:36:14.300Z,6.62
2019-01-29T15:38:45.608Z,6.67
2019-01-29T15:41:17.463Z,6.59
2019-01-29T15:43:49.385Z,6.51
2019-01-29T15:46:21.101Z,6.49
2019-01-29T15:48:53.988Z,6.49
2019-01-29T15:51:25.534Z,6.40
2019-01-29T15:53:57.249Z,6.36
2019-01-29T15:56:28.753Z,6.40
2019-01-29T15:59:00.476Z,6.41
2019-01-29T16:01:32.068Z,6.36
2019-01-29T16:04:03.711Z,6.31
2019-01-29T16:06:37.313Z,6.28
2019-01-29T16:09:10.777Z,6.23
2019-01-29T16:11:42.106Z,6.16
2019-01-29T16:14:13.886Z,6.18
2019-01-29T16:16:45.284Z,6.20
2019-01-29T16:19:16.875Z,6.15
2019-01-29T16:21:48.332Z,6.16
2019-01-29T16:24:19.666Z,6.05
2019-01-29T16:26:51.065Z,6.04
2019-01-29T16:29:22.546Z,6.06
2019-01-29T16:31:54.079Z,6.06
2019-01-29T16:34:25.447Z,6.04
2019-01-29T16:36:57.308Z,6.09
2019-01-29T16:39:28.840Z,6.05
2019-01-29T16:42:00.323Z,5.97
2019-01-29T16:44:31.711Z,6.02
2019-01-29T16:47:03.482Z,6.01
2019-01-29T16:49:34.954Z,6.08
2019-01-29T16:52:07.005Z,6.05
2019-01-29T16:54:38.880Z,6.10
2019-01-29T16:57:10.534Z,5.94
2019-01-29T16:59:42.196Z,5.80
2019-01-29T17:02:14.997Z,5.80
2019-01-29T17:04:46.348Z,5.75
2019-01-29T17:07:17.683Z,5.83
2019-01-29T17:09:49.393Z,5.83
2019-01-29T17:12:20.961Z,5.82
2019-01-29T17:14:52.449Z,5.82
2019-01-29T17:17:23.987Z,5.93
2019-01-29T17:19:56.324Z,5.99
2019-01-29T17:22:27.892Z,6.04
2019-01-29T17:24:59.184Z,6.04
2019-01-29T17:27:39.899Z,6.04
2019-01-29T17:30:06.996Z,6.04
2019-01-29T17:32:38.708Z,6.01
2019-01-29T17:35:10.464Z,6.09
2019-01-29T17:37:41.921Z,6.13
2019-01-29T17:40:14.644Z,6.16
2019-01-29T17:42:46.456Z,6.20
2019-01-29T17:45:20.902Z,6.24
2019-01-29T17:47:52.971Z,6.27
2019-01-29T17:50:26.668Z,6.23
2019-01-29T17:52:58.720Z,6.29
2019-01-29T17:55:31.648Z,6.26
2019-01-29T17:58:03.444Z,6.30
2019-01-29T18:00:36.355Z,6.36
2019-01-29T18:03:08.235Z,6.39
2019-01-29T18:05:40.020Z,6.37
2019-01-29T18:08:11.487Z,6.30
2019-01-29T18:10:43.157Z,6.29
2019-01-29T18:13:14.829Z,6.28
2019-01-29T18:15:46.490Z,6.19
2019-01-29T18:18:18.253Z,6.16
2019-01-29T18:20:49.642Z,6.18
2019-01-29T18:23:21.423Z,6.06
2019-01-29T18:25:53.257Z,5.92
2019-01-29T18:28:24.942Z,5.90
2019-01-29T18:30:56.482Z,5.78
2019-01-29T18:33:28.116Z,5.80
2019-01-29T18:35:59.592Z,5.85
2019-01-29T18:38:31.097Z,5.74
2019-01-29T18:41:03.043Z,5.72
2019-01-29T18:43:34.289Z,5.84
2019-01-29T18:46:05.905Z,5.85
2019-01-29T18:48:37.482Z,5.63
2019-01-29T18:51:09.070Z,5.53
2019-01-29T18:53:40.745Z,5.54
2019-01-29T18:56:12.117Z,5.58
2019-01-29T18:58:44.031Z,5.55
2019-01-29T19:01:15.844Z,5.48
2019-01-29T19:03:49.699Z,5.59
2019-01-29T19:06:20.563Z,5.55
2019-01-29T19:08:52.186Z,5.44
2019-01-29T19:11:23.843Z,5.40
2019-01-29T19:13:55.244Z,5.36
2019-01-29T19:16:26.661Z,5.39
2019-01-29T19:18:58.311Z,5.45
2019-01-29T19:21:30.039Z,5.48
2019-01-29T19:24:01.619Z,5.61
2019-01-29T19:26:33.239Z,5.72
2019-01-29T19:29:06.532Z,5.73
2019-01-29T19:31:38.102Z,5.76
2019-01-29T19:34:11.160Z,5.78
2019-01-29T19:36:42.719Z,5.85
2019-01-29T19:39:14.546Z,5.88
2019-01-29T19:41:46.138Z,5.91
2019-01-29T19:44:17.616Z,5.97
2019-01-29T19:46:50.036Z,6.01
2019-01-29T19:49:21.550Z,5.94
2019-01-29T19:51:53.355Z,6.03
2019-01-29T19:54:25.048Z,5.98
2019-01-29T19:56:56.505Z,6.01
2019-01-29T19:59:28.051Z,5.92
2019-01-29T20:01:59.825Z,5.79
2019-01-29T20:04:31.532Z,5.74
2019-01-29T20:07:03.418Z,5.65
2019-01-29T20:09:34.965Z,5.65
2019-01-29T20:12:06.756Z,5.73
2019-01-29T20:14:38.508Z,5.68
2019-01-29T20:17:10.108Z,5.62
2019-01-29T20:19:41.799Z,5.52
2019-01-29T20:22:13.659Z,5.61
2019-01-29T20:24:45.249Z,5.61
2019-01-29T20:27:17.886Z,5.62
2019-01-29T20:29:49.531Z,5.73
2019-01-29T20:32:21.397Z,5.75
2019-01-29T20:34:53.072Z,5.86
2019-01-29T20:37:24.631Z,5.83
2019-01-29T20:39:55.951Z,5.85
2019-01-29T20:42:27.382Z,5.90
2019-01-29T20:44:58.770Z,5.90
2019-01-29T20:47:30.147Z,5.92
2019-01-29T20:50:01.588Z,5.92
2019-01-29T20:52:33.102Z,5.86
2019-01-29T20:55:04.535Z,5.85
2019-01-29T20:57:35.851Z,5.81
2019-01-29T21:00:17.403Z,5.79
2019-01-29T21:02:48.983Z,5.82
2019-01-29T21:05:20.694Z,5.79
2019-01-29T21:07:52.243Z,5.72
2019-01-29T21:10:23.847Z,5.80
2019-01-29T21:12:55.679Z,5.87
2019-01-29T21:15:37.654Z,5.92
2019-01-29T21:18:00.303Z,5.86
2019-01-29T21:20:32.308Z,5.94
2019-01-29T21:23:03.698Z,5.67
2019-01-29T21:25:35.491Z,5.65
2019-01-29T21:28:07.096Z,5.68
2019-01-29T21:30:43.661Z,5.66
2019-01-29T21:33:14.096Z,5.68
2019-01-29T21:35:45.802Z,5.61
2019-01-29T21:38:17.608Z,5.60
2019-01-29T21:40:49.257Z,5.61
2019-01-29T21:43:20.870Z,5.65
2019-01-29T21:45:53.666Z,5.65
2019-01-29T21:48:25.084Z,5.60
2019-01-29T21:50:56.454Z,5.66
2019-01-29T21:53:27.857Z,5.69
2019-01-29T21:55:59.294Z,5.71
2019-01-29T21:58:31.154Z,5.66
2019-01-29T22:01:02.987Z,5.68
2019-01-29T22:03:34.776Z,5.72
2019-01-29T22:06:06.652Z,5.69
2019-01-29T22:08:38.177Z,5.68
2019-01-29T22:11:09.923Z,5.64
2019-01-29T22:14:08.912Z,5.52
2019-01-29T22:17:04.687Z,5.39
2019-01-29T22:19:45.245Z,5.31
2019-01-29T22:22:38.110Z,5.39
2019-01-29T22:25:14.001Z,5.38
2019-01-29T22:27:46.558Z,5.44
2019-01-29T22:30:26.837Z,5.39
2019-01-29T22:32:58.428Z,5.50
2019-01-29T22:35:29.918Z,5.52
2019-01-29T22:38:01.688Z,5.46
2019-01-29T22:40:33.723Z,5.27
2019-01-29T22:43:06.114Z,5.24
2019-01-29T22:45:37.889Z,5.33
2019-01-29T22:48:09.960Z,5.36
2019-01-29T22:50:43.194Z,5.40
2019-01-29T22:53:14.858Z,5.24
2019-01-29T22:55:46.664Z,5.19
2019-01-29T22:58:18.179Z,5.23
2019-01-29T23:01:33.871Z,5.17
2019-01-29T23:04:44.761Z,5.00
2019-01-29T23:07:21.911Z,5.00
2019-01-29T23:09:53.395Z,5.03
2019-01-29T23:12:24.995Z,5.03
2019-01-29T23:14:56.580Z,4.80
2019-01-29T23:17:28.329Z,4.84
2019-01-29T23:19:59.712Z,4.83
2019-01-29T23:22:31.136Z,4.68
2019-01-29T23:25:02.511Z,4.84
2019-01-29T23:27:34.458Z,4.89
2019-01-29T23:30:08.224Z,4.94
2019-01-29T23:32:39.861Z,5.08
2019-01-29T23:35:11.427Z,5.14
2019-01-29T23:37:42.913Z,5.04
2019-01-29T23:40:15.162Z,5.07
2019-01-29T23:42:46.708Z,5.15
2019-01-29T23:45:18.571Z,5.15
2019-01-29T23:48:00.625Z,5.19
2019-01-29T23:50:32.638Z,4.95
2019-01-29T23:53:04.191Z,4.91
2019-01-29T23:55:35.679Z,4.87
2019-01-29T23:58:07.553Z,4.96
